sensor_id;sensor_type;location;lat;lon;timestamp;P1;durP1;ratioP1;P2;durP2;ratioP2
34832;SDS011;55941;50.800;4.342;2023-07-13T00:01:29;13.98;;;2.42;;
34832;SDS011;55941;50.800;4.342;2023-07-13T00:03:56;14.40;;;2.40;;
34832;SDS011;55941;50.800;4.342;2023-07-13T00:06:22;10.85;;;2.33;;
34832;SDS011;55941;50.800;4.342;2023-07-13T00:08:48;18.27;;;2.17;;
34832;SDS011;55941;50.800;4.342;2023-07-13T00:11:14;10.63;;;2.20;;
34832;SDS011;55941;50.800;4.342;2023-07-13T00:13:41;13.88;;;2.38;;
34832;SDS011;55941;50.800;4.342;2023-07-13T00:16:08;10.85;;;2.35;;
34832;SDS011;55941;50.800;4.342;2023-07-13T00:18:35;15.43;;;2.35;;
34832;SDS011;55941;50.800;4.342;2023-07-13T00:21:00;13.75;;;2.28;;
34832;SDS011;55941;50.800;4.342;2023-07-13T00:23:31;17.55;;;2.83;;
34832;SDS011;55941;50.800;4.342;2023-07-13T00:25:59;9.68;;;2.33;;
34832;SDS011;55941;50.800;4.342;2023-07-13T00:28:25;14.82;;;2.38;;
34832;SDS011;55941;50.800;4.342;2023-07-13T00:30:51;20.15;;;2.55;;
34832;SDS011;55941;50.800;4.342;2023-07-13T00:33:17;17.95;;;2.50;;
34832;SDS011;55941;50.800;4.342;2023-07-13T00:35:43;14.82;;;2.40;;
34832;SDS011;55941;50.800;4.342;2023-07-13T00:38:09;13.88;;;2.38;;
34832;SDS011;55941;50.800;4.342;2023-07-13T00:40:35;13.57;;;2.83;;
34832;SDS011;55941;50.800;4.342;2023-07-13T00:43:01;15.88;;;2.60;;
34832;SDS011;55941;50.800;4.342;2023-07-13T00:47:53;13.23;;;2.65;;
34832;SDS011;55941;50.800;4.342;2023-07-13T00:50:21;20.02;;;3.20;;
34832;SDS011;55941;50.800;4.342;2023-07-13T00:52:53;19.52;;;2.83;;
34832;SDS011;55941;50.800;4.342;2023-07-13T00:55:20;14.65;;;3.47;;
34832;SDS011;55941;50.800;4.342;2023-07-13T00:57:46;14.77;;;2.67;;
34832;SDS011;55941;50.800;4.342;2023-07-13T01:00:13;19.35;;;3.10;;
34832;SDS011;55941;50.800;4.342;2023-07-13T01:02:40;17.73;;;2.75;;
34832;SDS011;55941;50.800;4.342;2023-07-13T01:05:09;10.10;;;2.55;;
34832;SDS011;55941;50.800;4.342;2023-07-13T01:07:36;12.07;;;2.47;;
34832;SDS011;55941;50.800;4.342;2023-07-13T01:10:03;8.82;;;2.30;;
34832;SDS011;55941;50.800;4.342;2023-07-13T01:12:29;17.83;;;2.63;;
34832;SDS011;55941;50.800;4.342;2023-07-13T01:14:59;19.83;;;3.30;;
34832;SDS011;55941;50.800;4.342;2023-07-13T01:17:26;16.08;;;2.97;;
34832;SDS011;55941;50.800;4.342;2023-07-13T01:19:53;15.48;;;3.88;;
34832;SDS011;55941;50.800;4.342;2023-07-13T01:22:20;16.73;;;2.97;;
34832;SDS011;55941;50.800;4.342;2023-07-13T01:24:50;21.35;;;3.10;;
34832;SDS011;55941;50.800;4.342;2023-07-13T01:27:20;19.15;;;3.33;;
34832;SDS011;55941;50.800;4.342;2023-07-13T01:29:51;17.48;;;2.50;;
34832;SDS011;55941;50.800;4.342;2023-07-13T01:32:19;13.73;;;2.60;;
34832;SDS011;55941;50.800;4.342;2023-07-13T01:34:49;19.15;;;3.40;;
34832;SDS011;55941;50.800;4.342;2023-07-13T01:37:16;12.43;;;2.85;;
34832;SDS011;55941;50.800;4.342;2023-07-13T01:39:42;15.80;;;2.67;;
34832;SDS011;55941;50.800;4.342;2023-07-13T01:42:08;14.10;;;2.90;;
34832;SDS011;55941;50.800;4.342;2023-07-13T01:44:34;20.58;;;2.58;;
34832;SDS011;55941;50.800;4.342;2023-07-13T01:47:00;16.98;;;3.15;;
34832;SDS011;55941;50.800;4.342;2023-07-13T01:49:26;18.85;;;3.20;;
34832;SDS011;55941;50.800;4.342;2023-07-13T01:51:51;15.77;;;3.00;;
34832;SDS011;55941;50.800;4.342;2023-07-13T01:54:17;15.02;;;3.10;;
34832;SDS011;55941;50.800;4.342;2023-07-13T01:56:43;15.10;;;2.50;;
34832;SDS011;55941;50.800;4.342;2023-07-13T01:59:09;17.25;;;3.17;;
34832;SDS011;55941;50.800;4.342;2023-07-13T02:01:35;15.65;;;2.78;;
34832;SDS011;55941;50.800;4.342;2023-07-13T02:04:01;19.67;;;3.75;;
34832;SDS011;55941;50.800;4.342;2023-07-13T02:06:27;17.88;;;2.70;;
34832;SDS011;55941;50.800;4.342;2023-07-13T02:08:53;22.63;;;2.90;;
34832;SDS011;55941;50.800;4.342;2023-07-13T02:11:19;22.25;;;3.45;;
34832;SDS011;55941;50.800;4.342;2023-07-13T02:13:45;26.98;;;3.85;;
34832;SDS011;55941;50.800;4.342;2023-07-13T02:16:11;18.52;;;3.13;;
34832;SDS011;55941;50.800;4.342;2023-07-13T02:18:37;19.17;;;3.90;;
34832;SDS011;55941;50.800;4.342;2023-07-13T02:21:03;24.63;;;3.58;;
34832;SDS011;55941;50.800;4.342;2023-07-13T02:23:29;18.17;;;3.60;;
34832;SDS011;55941;50.800;4.342;2023-07-13T02:25:58;28.05;;;3.97;;
34832;SDS011;55941;50.800;4.342;2023-07-13T02:28:25;18.13;;;3.15;;
34832;SDS011;55941;50.800;4.342;2023-07-13T02:30:51;16.23;;;3.25;;
34832;SDS011;55941;50.800;4.342;2023-07-13T02:33:17;17.67;;;3.55;;
34832;SDS011;55941;50.800;4.342;2023-07-13T02:35:43;21.48;;;3.42;;
34832;SDS011;55941;50.800;4.342;2023-07-13T02:38:08;23.80;;;3.28;;
34832;SDS011;55941;50.800;4.342;2023-07-13T02:40:34;28.73;;;3.08;;
34832;SDS011;55941;50.800;4.342;2023-07-13T02:43:00;22.27;;;3.45;;
34832;SDS011;55941;50.800;4.342;2023-07-13T02:45:27;17.33;;;2.97;;
34832;SDS011;55941;50.800;4.342;2023-07-13T02:47:53;16.45;;;3.22;;
34832;SDS011;55941;50.800;4.342;2023-07-13T02:50:19;21.40;;;3.15;;
34832;SDS011;55941;50.800;4.342;2023-07-13T02:52:45;19.50;;;3.20;;
34832;SDS011;55941;50.800;4.342;2023-07-13T02:55:10;22.75;;;3.50;;
34832;SDS011;55941;50.800;4.342;2023-07-13T02:57:36;20.45;;;3.95;;
34832;SDS011;55941;50.800;4.342;2023-07-13T03:00:03;21.80;;;3.53;;
34832;SDS011;55941;50.800;4.342;2023-07-13T03:02:33;22.35;;;3.90;;
34832;SDS011;55941;50.800;4.342;2023-07-13T03:04:59;20.20;;;3.35;;
34832;SDS011;55941;50.800;4.342;2023-07-13T03:07:25;18.38;;;3.50;;
34832;SDS011;55941;50.800;4.342;2023-07-13T03:09:56;25.17;;;3.90;;
34832;SDS011;55941;50.800;4.342;2023-07-13T03:12:22;16.33;;;2.88;;
34832;SDS011;55941;50.800;4.342;2023-07-13T03:14:48;22.92;;;3.85;;
34832;SDS011;55941;50.800;4.342;2023-07-13T03:17:14;21.75;;;3.88;;
34832;SDS011;55941;50.800;4.342;2023-07-13T03:19:40;21.98;;;3.58;;
34832;SDS011;55941;50.800;4.342;2023-07-13T03:22:06;19.63;;;3.08;;
34832;SDS011;55941;50.800;4.342;2023-07-13T03:24:35;25.15;;;3.90;;
34832;SDS011;55941;50.800;4.342;2023-07-13T03:27:03;15.60;;;3.73;;
34832;SDS011;55941;50.800;4.342;2023-07-13T03:29:30;21.80;;;3.50;;
34832;SDS011;55941;50.800;4.342;2023-07-13T03:31:56;16.40;;;3.45;;
34832;SDS011;55941;50.800;4.342;2023-07-13T03:34:21;17.77;;;3.33;;
34832;SDS011;55941;50.800;4.342;2023-07-13T03:36:47;19.63;;;3.85;;
34832;SDS011;55941;50.800;4.342;2023-07-13T03:39:13;28.60;;;3.72;;
34832;SDS011;55941;50.800;4.342;2023-07-13T03:41:39;24.40;;;3.80;;
34832;SDS011;55941;50.800;4.342;2023-07-13T03:44:04;23.65;;;3.40;;
34832;SDS011;55941;50.800;4.342;2023-07-13T03:46:31;22.23;;;3.60;;
34832;SDS011;55941;50.800;4.342;2023-07-13T03:48:57;26.00;;;4.38;;
34832;SDS011;55941;50.800;4.342;2023-07-13T03:51:23;18.98;;;3.40;;
34832;SDS011;55941;50.800;4.342;2023-07-13T03:53:49;16.10;;;3.28;;
34832;SDS011;55941;50.800;4.342;2023-07-13T03:56:15;25.02;;;4.53;;
34832;SDS011;55941;50.800;4.342;2023-07-13T03:58:43;18.40;;;3.47;;
34832;SDS011;55941;50.800;4.342;2023-07-13T04:01:10;26.30;;;4.60;;
34832;SDS011;55941;50.800;4.342;2023-07-13T04:03:37;20.90;;;3.92;;
34832;SDS011;55941;50.800;4.342;2023-07-13T04:06:04;27.17;;;3.85;;
34832;SDS011;55941;50.800;4.342;2023-07-13T04:08:31;26.83;;;4.80;;
34832;SDS011;55941;50.800;4.342;2023-07-13T04:10:59;19.73;;;4.20;;
34832;SDS011;55941;50.800;4.342;2023-07-13T04:13:26;20.55;;;3.72;;
34832;SDS011;55941;50.800;4.342;2023-07-13T04:15:52;24.67;;;4.20;;
34832;SDS011;55941;50.800;4.342;2023-07-13T04:18:18;25.75;;;3.97;;
34832;SDS011;55941;50.800;4.342;2023-07-13T04:20:46;25.00;;;3.83;;
34832;SDS011;55941;50.800;4.342;2023-07-13T04:23:12;24.00;;;4.10;;
34832;SDS011;55941;50.800;4.342;2023-07-13T04:25:39;22.63;;;5.13;;
34832;SDS011;55941;50.800;4.342;2023-07-13T04:28:08;28.92;;;4.20;;
34832;SDS011;55941;50.800;4.342;2023-07-13T04:30:34;20.15;;;3.80;;
34832;SDS011;55941;50.800;4.342;2023-07-13T04:33:00;24.15;;;3.25;;
34832;SDS011;55941;50.800;4.342;2023-07-13T04:35:25;30.65;;;3.80;;
34832;SDS011;55941;50.800;4.342;2023-07-13T04:37:52;20.33;;;3.85;;
34832;SDS011;55941;50.800;4.342;2023-07-13T04:40:18;24.60;;;4.43;;
34832;SDS011;55941;50.800;4.342;2023-07-13T04:42:45;22.85;;;4.63;;
34832;SDS011;55941;50.800;4.342;2023-07-13T04:45:14;28.70;;;5.18;;
34832;SDS011;55941;50.800;4.342;2023-07-13T04:47:40;23.48;;;4.35;;
34832;SDS011;55941;50.800;4.342;2023-07-13T04:50:07;19.58;;;4.20;;
34832;SDS011;55941;50.800;4.342;2023-07-13T04:52:33;18.25;;;4.38;;
34832;SDS011;55941;50.800;4.342;2023-07-13T04:54:59;33.85;;;4.53;;
34832;SDS011;55941;50.800;4.342;2023-07-13T04:57:26;23.08;;;4.55;;
34832;SDS011;55941;50.800;4.342;2023-07-13T04:59:53;23.25;;;4.40;;
34832;SDS011;55941;50.800;4.342;2023-07-13T05:02:20;26.55;;;4.70;;
34832;SDS011;55941;50.800;4.342;2023-07-13T05:04:49;30.50;;;4.13;;
34832;SDS011;55941;50.800;4.342;2023-07-13T05:07:15;29.15;;;4.57;;
34832;SDS011;55941;50.800;4.342;2023-07-13T05:09:41;27.45;;;3.95;;
34832;SDS011;55941;50.800;4.342;2023-07-13T05:12:08;26.95;;;4.35;;
34832;SDS011;55941;50.800;4.342;2023-07-13T05:14:35;27.95;;;4.47;;
34832;SDS011;55941;50.800;4.342;2023-07-13T05:17:01;30.52;;;4.00;;
34832;SDS011;55941;50.800;4.342;2023-07-13T05:19:27;21.70;;;3.53;;
34832;SDS011;55941;50.800;4.342;2023-07-13T05:21:53;32.38;;;4.75;;
34832;SDS011;55941;50.800;4.342;2023-07-13T05:24:19;28.02;;;4.30;;
34832;SDS011;55941;50.800;4.342;2023-07-13T05:26:45;28.10;;;4.45;;
34832;SDS011;55941;50.800;4.342;2023-07-13T05:29:11;25.00;;;4.22;;
34832;SDS011;55941;50.800;4.342;2023-07-13T05:31:37;23.58;;;4.05;;
34832;SDS011;55941;50.800;4.342;2023-07-13T05:34:03;26.00;;;4.20;;
34832;SDS011;55941;50.800;4.342;2023-07-13T05:36:28;28.60;;;4.47;;
34832;SDS011;55941;50.800;4.342;2023-07-13T05:38:54;26.85;;;4.40;;
34832;SDS011;55941;50.800;4.342;2023-07-13T05:41:20;21.10;;;3.75;;
34832;SDS011;55941;50.800;4.342;2023-07-13T05:43:46;25.38;;;4.13;;
34832;SDS011;55941;50.800;4.342;2023-07-13T05:46:12;23.33;;;4.25;;
34832;SDS011;55941;50.800;4.342;2023-07-13T05:48:38;18.38;;;3.80;;
34832;SDS011;55941;50.800;4.342;2023-07-13T05:51:04;21.38;;;4.20;;
34832;SDS011;55941;50.800;4.342;2023-07-13T05:53:30;28.35;;;3.88;;
34832;SDS011;55941;50.800;4.342;2023-07-13T05:55:56;25.65;;;4.75;;
34832;SDS011;55941;50.800;4.342;2023-07-13T05:58:22;24.08;;;4.40;;
34832;SDS011;55941;50.800;4.342;2023-07-13T06:00:48;34.15;;;4.85;;
34832;SDS011;55941;50.800;4.342;2023-07-13T06:03:24;25.15;;;3.95;;
34832;SDS011;55941;50.800;4.342;2023-07-13T06:05:49;26.73;;;4.88;;
34832;SDS011;55941;50.800;4.342;2023-07-13T06:08:15;27.15;;;4.38;;
34832;SDS011;55941;50.800;4.342;2023-07-13T06:10:41;40.17;;;5.25;;
34832;SDS011;55941;50.800;4.342;2023-07-13T06:13:07;42.15;;;5.80;;
34832;SDS011;55941;50.800;4.342;2023-07-13T06:15:32;28.05;;;4.35;;
34832;SDS011;55941;50.800;4.342;2023-07-13T06:17:58;34.10;;;4.72;;
34832;SDS011;55941;50.800;4.342;2023-07-13T06:20:24;26.95;;;3.75;;
34832;SDS011;55941;50.800;4.342;2023-07-13T06:22:50;29.08;;;4.85;;
34832;SDS011;55941;50.800;4.342;2023-07-13T06:25:15;24.95;;;4.68;;
34832;SDS011;55941;50.800;4.342;2023-07-13T06:27:43;22.77;;;4.05;;
34832;SDS011;55941;50.800;4.342;2023-07-13T06:30:08;21.42;;;3.88;;
34832;SDS011;55941;50.800;4.342;2023-07-13T06:32:35;21.77;;;4.95;;
34832;SDS011;55941;50.800;4.342;2023-07-13T06:35:01;26.67;;;4.40;;
34832;SDS011;55941;50.800;4.342;2023-07-13T06:37:27;28.15;;;4.65;;
34832;SDS011;55941;50.800;4.342;2023-07-13T06:39:52;26.05;;;4.43;;
34832;SDS011;55941;50.800;4.342;2023-07-13T06:42:18;25.50;;;4.53;;
34832;SDS011;55941;50.800;4.342;2023-07-13T06:44:44;25.05;;;4.47;;
34832;SDS011;55941;50.800;4.342;2023-07-13T06:47:10;27.25;;;4.22;;
34832;SDS011;55941;50.800;4.342;2023-07-13T06:49:36;28.38;;;5.00;;
34832;SDS011;55941;50.800;4.342;2023-07-13T06:52:01;31.90;;;4.57;;
34832;SDS011;55941;50.800;4.342;2023-07-13T06:54:27;37.97;;;4.43;;
34832;SDS011;55941;50.800;4.342;2023-07-13T06:56:53;24.17;;;4.10;;
34832;SDS011;55941;50.800;4.342;2023-07-13T06:59:19;22.00;;;4.30;;
34832;SDS011;55941;50.800;4.342;2023-07-13T07:01:44;28.17;;;4.68;;
34832;SDS011;55941;50.800;4.342;2023-07-13T07:04:10;37.38;;;4.60;;
34832;SDS011;55941;50.800;4.342;2023-07-13T07:06:36;31.80;;;4.63;;
34832;SDS011;55941;50.800;4.342;2023-07-13T07:09:02;20.58;;;3.90;;
34832;SDS011;55941;50.800;4.342;2023-07-13T07:11:28;26.95;;;4.82;;
34832;SDS011;55941;50.800;4.342;2023-07-13T07:13:54;25.05;;;3.72;;
34832;SDS011;55941;50.800;4.342;2023-07-13T07:16:20;19.02;;;3.50;;
34832;SDS011;55941;50.800;4.342;2023-07-13T07:18:46;28.08;;;3.95;;
34832;SDS011;55941;50.800;4.342;2023-07-13T07:21:13;33.95;;;4.53;;
34832;SDS011;55941;50.800;4.342;2023-07-13T07:23:39;18.20;;;3.50;;
34832;SDS011;55941;50.800;4.342;2023-07-13T07:26:04;21.73;;;4.00;;
34832;SDS011;55941;50.800;4.342;2023-07-13T07:28:30;22.55;;;3.95;;
34832;SDS011;55941;50.800;4.342;2023-07-13T07:30:57;24.15;;;3.75;;
34832;SDS011;55941;50.800;4.342;2023-07-13T07:33:23;25.13;;;4.38;;
34832;SDS011;55941;50.800;4.342;2023-07-13T07:35:50;25.20;;;4.20;;
34832;SDS011;55941;50.800;4.342;2023-07-13T07:38:16;35.13;;;4.35;;
34832;SDS011;55941;50.800;4.342;2023-07-13T07:40:42;24.52;;;4.47;;
34832;SDS011;55941;50.800;4.342;2023-07-13T07:43:09;26.70;;;4.35;;
34832;SDS011;55941;50.800;4.342;2023-07-13T07:45:36;16.80;;;3.75;;
34832;SDS011;55941;50.800;4.342;2023-07-13T07:48:04;21.02;;;4.15;;
34832;SDS011;55941;50.800;4.342;2023-07-13T07:50:31;20.60;;;4.25;;
34832;SDS011;55941;50.800;4.342;2023-07-13T07:52:57;16.95;;;3.15;;
34832;SDS011;55941;50.800;4.342;2023-07-13T07:55:23;25.98;;;3.92;;
34832;SDS011;55941;50.800;4.342;2023-07-13T07:57:51;21.67;;;4.47;;
34832;SDS011;55941;50.800;4.342;2023-07-13T08:00:17;21.45;;;3.08;;
34832;SDS011;55941;50.800;4.342;2023-07-13T08:02:44;15.18;;;3.92;;
34832;SDS011;55941;50.800;4.342;2023-07-13T08:05:10;16.73;;;3.75;;
34832;SDS011;55941;50.800;4.342;2023-07-13T08:07:39;28.20;;;4.75;;
34832;SDS011;55941;50.800;4.342;2023-07-13T08:10:06;15.65;;;4.07;;
34832;SDS011;55941;50.800;4.342;2023-07-13T08:12:36;20.92;;;3.75;;
34832;SDS011;55941;50.800;4.342;2023-07-13T08:15:02;18.83;;;3.92;;
34832;SDS011;55941;50.800;4.342;2023-07-13T08:17:28;38.75;;;4.18;;
34832;SDS011;55941;50.800;4.342;2023-07-13T08:19:54;14.00;;;3.40;;
34832;SDS011;55941;50.800;4.342;2023-07-13T08:22:20;26.23;;;4.32;;
34832;SDS011;55941;50.800;4.342;2023-07-13T08:24:46;18.63;;;3.22;;
34832;SDS011;55941;50.800;4.342;2023-07-13T08:27:12;13.98;;;3.10;;
34832;SDS011;55941;50.800;4.342;2023-07-13T08:29:39;31.80;;;3.83;;
34832;SDS011;55941;50.800;4.342;2023-07-13T08:32:05;18.10;;;3.20;;
34832;SDS011;55941;50.800;4.342;2023-07-13T08:34:36;18.67;;;3.40;;
34832;SDS011;55941;50.800;4.342;2023-07-13T08:37:02;24.05;;;3.40;;
34832;SDS011;55941;50.800;4.342;2023-07-13T08:39:28;20.48;;;3.25;;
34832;SDS011;55941;50.800;4.342;2023-07-13T08:41:56;15.02;;;3.05;;
34832;SDS011;55941;50.800;4.342;2023-07-13T08:44:54;18.30;;;3.50;;
34832;SDS011;55941;50.800;4.342;2023-07-13T08:47:22;18.08;;;3.10;;
34832;SDS011;55941;50.800;4.342;2023-07-13T08:49:49;15.70;;;3.70;;
34832;SDS011;55941;50.800;4.342;2023-07-13T08:55:21;12.23;;;2.63;;
34832;SDS011;55941;50.800;4.342;2023-07-13T08:57:56;17.42;;;3.03;;
34832;SDS011;55941;50.800;4.342;2023-07-13T09:00:33;11.07;;;3.03;;
34832;SDS011;55941;50.800;4.342;2023-07-13T09:03:09;15.05;;;2.63;;
34832;SDS011;55941;50.800;4.342;2023-07-13T09:05:45;20.02;;;3.22;;
34832;SDS011;55941;50.800;4.342;2023-07-13T09:14:06;14.10;;;3.25;;
34832;SDS011;55941;50.800;4.342;2023-07-13T09:16:42;19.73;;;3.00;;
34832;SDS011;55941;50.800;4.342;2023-07-13T09:19:11;13.02;;;2.80;;
34832;SDS011;55941;50.800;4.342;2023-07-13T09:21:44;15.27;;;2.70;;
34832;SDS011;55941;50.800;4.342;2023-07-13T09:24:22;16.13;;;3.55;;
34832;SDS011;55941;50.800;4.342;2023-07-13T09:26:53;17.77;;;3.05;;
34832;SDS011;55941;50.800;4.342;2023-07-13T09:29:24;24.52;;;3.63;;
34832;SDS011;55941;50.800;4.342;2023-07-13T09:31:54;27.40;;;3.70;;
34832;SDS011;55941;50.800;4.342;2023-07-13T09:34:23;13.32;;;3.15;;
34832;SDS011;55941;50.800;4.342;2023-07-13T09:36:51;16.48;;;2.90;;
34832;SDS011;55941;50.800;4.342;2023-07-13T09:44:29;20.45;;;3.40;;
34832;SDS011;55941;50.800;4.342;2023-07-13T09:46:57;14.52;;;3.20;;
34832;SDS011;55941;50.800;4.342;2023-07-13T09:49:27;12.73;;;3.05;;
34832;SDS011;55941;50.800;4.342;2023-07-13T09:51:58;12.48;;;2.58;;
34832;SDS011;55941;50.800;4.342;2023-07-13T09:54:28;17.73;;;2.85;;
34832;SDS011;55941;50.800;4.342;2023-07-13T09:56:57;18.52;;;2.97;;
34832;SDS011;55941;50.800;4.342;2023-07-13T09:59:26;14.45;;;2.80;;
34832;SDS011;55941;50.800;4.342;2023-07-13T10:01:54;16.43;;;3.17;;
34832;SDS011;55941;50.800;4.342;2023-07-13T10:04:26;11.13;;;2.30;;
34832;SDS011;55941;50.800;4.342;2023-07-13T10:07:12;7.88;;;1.98;;
34832;SDS011;55941;50.800;4.342;2023-07-13T10:09:38;10.27;;;2.53;;
34832;SDS011;55941;50.800;4.342;2023-07-13T10:12:12;10.60;;;2.20;;
34832;SDS011;55941;50.800;4.342;2023-07-13T10:14:42;18.38;;;3.15;;
34832;SDS011;55941;50.800;4.342;2023-07-13T10:17:10;12.32;;;2.85;;
34832;SDS011;55941;50.800;4.342;2023-07-13T10:19:39;15.23;;;3.30;;
34832;SDS011;55941;50.800;4.342;2023-07-13T10:22:22;15.13;;;2.00;;
34832;SDS011;55941;50.800;4.342;2023-07-13T10:24:54;11.27;;;2.67;;
34832;SDS011;55941;50.800;4.342;2023-07-13T10:27:23;9.98;;;2.28;;
34832;SDS011;55941;50.800;4.342;2023-07-13T10:30:12;8.77;;;2.42;;
34832;SDS011;55941;50.800;4.342;2023-07-13T10:32:43;7.53;;;1.98;;
34832;SDS011;55941;50.800;4.342;2023-07-13T10:35:14;13.90;;;2.63;;
34832;SDS011;55941;50.800;4.342;2023-07-13T10:37:45;11.52;;;2.70;;
34832;SDS011;55941;50.800;4.342;2023-07-13T10:40:15;9.00;;;2.60;;
34832;SDS011;55941;50.800;4.342;2023-07-13T10:42:45;20.35;;;2.85;;
34832;SDS011;55941;50.800;4.342;2023-07-13T10:45:13;10.38;;;2.35;;
34832;SDS011;55941;50.800;4.342;2023-07-13T10:47:42;10.20;;;2.13;;
34832;SDS011;55941;50.800;4.342;2023-07-13T10:50:11;9.73;;;1.85;;
34832;SDS011;55941;50.800;4.342;2023-07-13T10:52:52;7.72;;;2.45;;
34832;SDS011;55941;50.800;4.342;2023-07-13T10:58:14;44.63;;;4.05;;
34832;SDS011;55941;50.800;4.342;2023-07-13T11:00:57;12.23;;;3.07;;
34832;SDS011;55941;50.800;4.342;2023-07-13T11:06:16;18.63;;;2.75;;
34832;SDS011;55941;50.800;4.342;2023-07-13T11:19:23;11.55;;;1.60;;
34832;SDS011;55941;50.800;4.342;2023-07-13T11:22:01;13.73;;;2.45;;
34832;SDS011;55941;50.800;4.342;2023-07-13T11:24:47;10.25;;;2.13;;
34832;SDS011;55941;50.800;4.342;2023-07-13T11:27:33;9.48;;;1.85;;
34832;SDS011;55941;50.800;4.342;2023-07-13T11:30:16;5.95;;;1.58;;
34832;SDS011;55941;50.800;4.342;2023-07-13T11:33:11;8.15;;;2.03;;
34832;SDS011;55941;50.800;4.342;2023-07-13T11:38:40;12.15;;;2.55;;
34832;SDS011;55941;50.800;4.342;2023-07-13T11:41:37;9.35;;;2.50;;
34832;SDS011;55941;50.800;4.342;2023-07-13T11:44:17;9.18;;;1.77;;
34832;SDS011;55941;50.800;4.342;2023-07-13T11:46:45;12.70;;;2.55;;
34832;SDS011;55941;50.800;4.342;2023-07-13T11:49:20;13.88;;;2.38;;
34832;SDS011;55941;50.800;4.342;2023-07-13T11:51:50;9.65;;;1.75;;
34832;SDS011;55941;50.800;4.342;2023-07-13T11:54:27;23.83;;;3.03;;
34832;SDS011;55941;50.800;4.342;2023-07-13T11:56:59;8.75;;;1.80;;
34832;SDS011;55941;50.800;4.342;2023-07-13T11:59:31;10.60;;;1.77;;
34832;SDS011;55941;50.800;4.342;2023-07-13T12:01:58;11.48;;;1.85;;
34832;SDS011;55941;50.800;4.342;2023-07-13T12:04:31;6.18;;;1.52;;
34832;SDS011;55941;50.800;4.342;2023-07-13T12:07:14;11.00;;;2.13;;
34832;SDS011;55941;50.800;4.342;2023-07-13T12:09:42;7.85;;;2.17;;
34832;SDS011;55941;50.800;4.342;2023-07-13T12:12:18;8.07;;;1.85;;
34832;SDS011;55941;50.800;4.342;2023-07-13T12:14:46;8.30;;;1.70;;
34832;SDS011;55941;50.800;4.342;2023-07-13T12:17:16;5.78;;;2.03;;
34832;SDS011;55941;50.800;4.342;2023-07-13T12:19:45;49.78;;;2.72;;
34832;SDS011;55941;50.800;4.342;2023-07-13T12:22:12;24.55;;;2.30;;
34832;SDS011;55941;50.800;4.342;2023-07-13T12:24:43;40.38;;;3.38;;
34832;SDS011;55941;50.800;4.342;2023-07-13T12:27:18;9.07;;;1.95;;
34832;SDS011;55941;50.800;4.342;2023-07-13T12:30:15;6.88;;;1.42;;
34832;SDS011;55941;50.800;4.342;2023-07-13T12:33:00;5.45;;;1.35;;
34832;SDS011;55941;50.800;4.342;2023-07-13T12:35:26;6.10;;;1.50;;
34832;SDS011;55941;50.800;4.342;2023-07-13T12:38:00;6.38;;;1.55;;
34832;SDS011;55941;50.800;4.342;2023-07-13T12:40:28;10.52;;;1.90;;
34832;SDS011;55941;50.800;4.342;2023-07-13T12:42:58;8.40;;;1.65;;
34832;SDS011;55941;50.800;4.342;2023-07-13T12:45:26;12.32;;;2.88;;
34832;SDS011;55941;50.800;4.342;2023-07-13T12:48:03;11.65;;;2.50;;
34832;SDS011;55941;50.800;4.342;2023-07-13T12:50:36;7.00;;;2.25;;
34832;SDS011;55941;50.800;4.342;2023-07-13T12:53:09;11.00;;;2.33;;
34832;SDS011;55941;50.800;4.342;2023-07-13T12:55:55;17.23;;;3.03;;
34832;SDS011;55941;50.800;4.342;2023-07-13T12:58:30;8.52;;;2.20;;
34832;SDS011;55941;50.800;4.342;2023-07-13T13:01:02;10.18;;;2.72;;
34832;SDS011;55941;50.800;4.342;2023-07-13T13:03:37;7.55;;;2.50;;
34832;SDS011;55941;50.800;4.342;2023-07-13T13:08:48;8.48;;;1.85;;
34832;SDS011;55941;50.800;4.342;2023-07-13T13:11:16;3.83;;;1.50;;
34832;SDS011;55941;50.800;4.342;2023-07-13T13:13:45;11.55;;;1.90;;
34832;SDS011;55941;50.800;4.342;2023-07-13T13:16:22;11.07;;;1.67;;
34832;SDS011;55941;50.800;4.342;2023-07-13T13:18:56;7.38;;;1.70;;
34832;SDS011;55941;50.800;4.342;2023-07-13T13:21:24;8.25;;;1.98;;
34832;SDS011;55941;50.800;4.342;2023-07-13T13:23:51;5.07;;;2.10;;
34832;SDS011;55941;50.800;4.342;2023-07-13T13:26:18;7.65;;;1.88;;
34832;SDS011;55941;50.800;4.342;2023-07-13T13:28:48;14.30;;;2.72;;
34832;SDS011;55941;50.800;4.342;2023-07-13T13:31:14;7.28;;;1.98;;
34832;SDS011;55941;50.800;4.342;2023-07-13T13:33:43;9.07;;;2.03;;
34832;SDS011;55941;50.800;4.342;2023-07-13T13:36:14;11.82;;;1.98;;
34832;SDS011;55941;50.800;4.342;2023-07-13T13:38:44;5.68;;;1.65;;
34832;SDS011;55941;50.800;4.342;2023-07-13T13:41:11;5.95;;;1.95;;
34832;SDS011;55941;50.800;4.342;2023-07-13T13:43:38;11.98;;;1.88;;
34832;SDS011;55941;50.800;4.342;2023-07-13T13:46:09;23.60;;;2.20;;
34832;SDS011;55941;50.800;4.342;2023-07-13T13:48:43;6.85;;;1.80;;
34832;SDS011;55941;50.800;4.342;2023-07-13T13:51:17;4.00;;;1.40;;
34832;SDS011;55941;50.800;4.342;2023-07-13T13:53:45;7.25;;;1.80;;
34832;SDS011;55941;50.800;4.342;2023-07-13T13:56:12;5.32;;;1.67;;
34832;SDS011;55941;50.800;4.342;2023-07-13T13:58:39;11.20;;;1.88;;
34832;SDS011;55941;50.800;4.342;2023-07-13T14:01:09;5.20;;;1.73;;
34832;SDS011;55941;50.800;4.342;2023-07-13T14:03:39;5.78;;;1.80;;
34832;SDS011;55941;50.800;4.342;2023-07-13T14:06:05;9.82;;;1.98;;
34832;SDS011;55941;50.800;4.342;2023-07-13T14:08:32;5.30;;;1.67;;
34832;SDS011;55941;50.800;4.342;2023-07-13T14:10:58;8.98;;;1.98;;
34832;SDS011;55941;50.800;4.342;2023-07-13T14:13:26;5.50;;;1.48;;
34832;SDS011;55941;50.800;4.342;2023-07-13T14:16:09;8.30;;;1.90;;
34832;SDS011;55941;50.800;4.342;2023-07-13T14:18:36;7.32;;;2.00;;
34832;SDS011;55941;50.800;4.342;2023-07-13T14:21:03;6.05;;;2.20;;
34832;SDS011;55941;50.800;4.342;2023-07-13T14:23:33;6.88;;;2.13;;
34832;SDS011;55941;50.800;4.342;2023-07-13T14:25:59;7.47;;;2.00;;
34832;SDS011;55941;50.800;4.342;2023-07-13T14:28:25;7.72;;;1.92;;
34832;SDS011;55941;50.800;4.342;2023-07-13T14:30:52;10.60;;;2.22;;
34832;SDS011;55941;50.800;4.342;2023-07-13T14:33:19;10.00;;;2.10;;
34832;SDS011;55941;50.800;4.342;2023-07-13T14:35:46;6.13;;;2.28;;
34832;SDS011;55941;50.800;4.342;2023-07-13T14:38:14;9.05;;;1.88;;
34832;SDS011;55941;50.800;4.342;2023-07-13T14:40:42;6.65;;;1.92;;
34832;SDS011;55941;50.800;4.342;2023-07-13T14:43:15;4.13;;;1.83;;
34832;SDS011;55941;50.800;4.342;2023-07-13T14:45:43;3.63;;;1.45;;
34832;SDS011;55941;50.800;4.342;2023-07-13T14:48:21;7.65;;;1.58;;
34832;SDS011;55941;50.800;4.342;2023-07-13T14:50:57;7.65;;;2.22;;
34832;SDS011;55941;50.800;4.342;2023-07-13T14:53:24;7.78;;;2.40;;
34832;SDS011;55941;50.800;4.342;2023-07-13T14:55:54;5.22;;;1.48;;
34832;SDS011;55941;50.800;4.342;2023-07-13T14:58:20;5.38;;;1.58;;
34832;SDS011;55941;50.800;4.342;2023-07-13T15:00:45;8.15;;;2.28;;
34832;SDS011;55941;50.800;4.342;2023-07-13T15:03:17;6.68;;;1.63;;
34832;SDS011;55941;50.800;4.342;2023-07-13T15:05:48;12.90;;;2.03;;
34832;SDS011;55941;50.800;4.342;2023-07-13T15:08:14;8.10;;;1.95;;
34832;SDS011;55941;50.800;4.342;2023-07-13T15:10:40;8.55;;;1.80;;
34832;SDS011;55941;50.800;4.342;2023-07-13T15:15:40;5.60;;;1.77;;
34832;SDS011;55941;50.800;4.342;2023-07-13T15:18:12;3.95;;;1.50;;
34832;SDS011;55941;50.800;4.342;2023-07-13T15:20:42;6.25;;;1.45;;
34832;SDS011;55941;50.800;4.342;2023-07-13T15:23:10;7.18;;;1.65;;
34832;SDS011;55941;50.800;4.342;2023-07-13T15:25:37;4.53;;;1.65;;
34832;SDS011;55941;50.800;4.342;2023-07-13T15:28:03;4.43;;;1.60;;